sensor_id;sensor_type;location;lat;lon;timestamp;P1;durP1;ratioP1;P2;durP2;ratioP2
71562;SDS011;59391;52.504;13.438;2023-02-18T00:00:19;18.13;;;3.00;;
71562;SDS011;59391;52.504;13.438;2023-02-18T00:02:47;9.70;;;3.00;;
71562;SDS011;59391;52.504;13.438;2023-02-18T00:05:13;13.63;;;3.72;;
71562;SDS011;59391;52.504;13.438;2023-02-18T00:07:40;11.90;;;3.33;;
71562;SDS011;59391;52.504;13.438;2023-02-18T00:10:07;10.18;;;3.00;;
71562;SDS011;59391;52.504;13.438;2023-02-18T00:12:37;14.38;;;3.38;;
71562;SDS011;59391;52.504;13.438;2023-02-18T00:15:03;12.98;;;2.53;;
71562;SDS011;59391;52.504;13.438;2023-02-18T00:17:29;12.93;;;3.33;;
71562;SDS011;59391;52.504;13.438;2023-02-18T00:19:55;16.23;;;3.33;;
71562;SDS011;59391;52.504;13.438;2023-02-18T00:22:21;9.80;;;2.60;;
71562;SDS011;59391;52.504;13.438;2023-02-18T00:24:48;10.73;;;3.08;;
71562;SDS011;59391;52.504;13.438;2023-02-18T00:27:13;12.20;;;3.50;;
71562;SDS011;59391;52.504;13.438;2023-02-18T00:29:39;10.23;;;3.17;;
71562;SDS011;59391;52.504;13.438;2023-02-18T00:32:05;12.60;;;2.90;;
71562;SDS011;59391;52.504;13.438;2023-02-18T00:34:31;11.05;;;3.70;;
71562;SDS011;59391;52.504;13.438;2023-02-18T00:36:56;11.52;;;3.05;;
71562;SDS011;59391;52.504;13.438;2023-02-18T00:39:22;15.75;;;3.38;;
71562;SDS011;59391;52.504;13.438;2023-02-18T00:41:48;9.83;;;2.93;;
71562;SDS011;59391;52.504;13.438;2023-02-18T00:44:13;11.13;;;2.80;;
71562;SDS011;59391;52.504;13.438;2023-02-18T00:46:39;12.50;;;3.00;;
71562;SDS011;59391;52.504;13.438;2023-02-18T00:49:06;15.18;;;3.90;;
71562;SDS011;59391;52.504;13.438;2023-02-18T00:51:32;9.38;;;3.50;;
71562;SDS011;59391;52.504;13.438;2023-02-18T00:53:59;11.50;;;3.33;;
71562;SDS011;59391;52.504;13.438;2023-02-18T00:56:24;11.37;;;3.00;;
71562;SDS011;59391;52.504;13.438;2023-02-18T00:58:50;12.82;;;3.83;;
71562;SDS011;59391;52.504;13.438;2023-02-18T01:01:16;11.67;;;3.10;;
71562;SDS011;59391;52.504;13.438;2023-02-18T01:03:43;15.63;;;3.83;;
71562;SDS011;59391;52.504;13.438;2023-02-18T01:06:10;11.93;;;3.30;;
71562;SDS011;59391;52.504;13.438;2023-02-18T01:08:37;12.25;;;3.83;;
71562;SDS011;59391;52.504;13.438;2023-02-18T01:11:06;9.53;;;3.00;;
71562;SDS011;59391;52.504;13.438;2023-02-18T01:13:34;16.10;;;3.60;;
71562;SDS011;59391;52.504;13.438;2023-02-18T01:16:00;10.55;;;3.05;;
71562;SDS011;59391;52.504;13.438;2023-02-18T01:18:26;11.52;;;3.35;;
71562;SDS011;59391;52.504;13.438;2023-02-18T01:20:52;14.33;;;3.47;;
71562;SDS011;59391;52.504;13.438;2023-02-18T01:23:18;16.00;;;3.15;;
71562;SDS011;59391;52.504;13.438;2023-02-18T01:25:44;14.70;;;3.35;;
71562;SDS011;59391;52.504;13.438;2023-02-18T01:28:11;10.63;;;3.33;;
71562;SDS011;59391;52.504;13.438;2023-02-18T01:30:38;13.98;;;3.90;;
71562;SDS011;59391;52.504;13.438;2023-02-18T01:33:05;12.95;;;3.55;;
71562;SDS011;59391;52.504;13.438;2023-02-18T01:35:31;10.93;;;2.67;;
71562;SDS011;59391;52.504;13.438;2023-02-18T01:37:58;12.17;;;3.30;;
71562;SDS011;59391;52.504;13.438;2023-02-18T01:40:25;8.18;;;3.10;;
71562;SDS011;59391;52.504;13.438;2023-02-18T01:42:53;9.98;;;2.80;;
71562;SDS011;59391;52.504;13.438;2023-02-18T01:48:05;11.30;;;3.83;;
71562;SDS011;59391;52.504;13.438;2023-02-18T01:50:43;13.27;;;3.60;;
71562;SDS011;59391;52.504;13.438;2023-02-18T01:53:14;10.35;;;3.17;;
71562;SDS011;59391;52.504;13.438;2023-02-18T01:55:49;12.30;;;3.30;;
71562;SDS011;59391;52.504;13.438;2023-02-18T01:58:15;13.37;;;3.13;;
71562;SDS011;59391;52.504;13.438;2023-02-18T02:00:41;11.40;;;3.17;;
71562;SDS011;59391;52.504;13.438;2023-02-18T02:03:07;9.00;;;2.65;;
71562;SDS011;59391;52.504;13.438;2023-02-18T02:05:33;11.60;;;3.23;;
71562;SDS011;59391;52.504;13.438;2023-02-18T02:07:59;11.38;;;3.30;;
71562;SDS011;59391;52.504;13.438;2023-02-18T02:10:35;10.90;;;3.65;;
71562;SDS011;59391;52.504;13.438;2023-02-18T02:13:37;10.63;;;3.03;;
71562;SDS011;59391;52.504;13.438;2023-02-18T02:16:25;11.43;;;3.50;;
71562;SDS011;59391;52.504;13.438;2023-02-18T02:22:05;12.90;;;3.63;;
71562;SDS011;59391;52.504;13.438;2023-02-18T02:24:56;12.85;;;3.00;;
71562;SDS011;59391;52.504;13.438;2023-02-18T02:30:57;15.73;;;3.30;;
71562;SDS011;59391;52.504;13.438;2023-02-18T02:42:25;10.03;;;3.07;;
71562;SDS011;59391;52.504;13.438;2023-02-18T02:45:05;10.63;;;2.88;;
71562;SDS011;59391;52.504;13.438;2023-02-18T02:53:34;15.07;;;3.33;;
71562;SDS011;59391;52.504;13.438;2023-02-18T02:56:01;11.83;;;2.93;;
71562;SDS011;59391;52.504;13.438;2023-02-18T02:58:30;13.43;;;3.35;;
71562;SDS011;59391;52.504;13.438;2023-02-18T03:01:05;13.60;;;3.08;;
71562;SDS011;59391;52.504;13.438;2023-02-18T03:06:52;8.00;;;2.80;;
71562;SDS011;59391;52.504;13.438;2023-02-18T03:12:22;9.68;;;2.97;;
71562;SDS011;59391;52.504;13.438;2023-02-18T03:15:05;8.43;;;2.50;;
71562;SDS011;59391;52.504;13.438;2023-02-18T03:17:48;13.07;;;2.80;;
71562;SDS011;59391;52.504;13.438;2023-02-18T03:20:39;8.88;;;2.70;;
71562;SDS011;59391;52.504;13.438;2023-02-18T03:23:15;9.47;;;2.97;;
71562;SDS011;59391;52.504;13.438;2023-02-18T03:25:51;10.85;;;3.08;;
71562;SDS011;59391;52.504;13.438;2023-02-18T03:28:19;7.63;;;2.92;;
71562;SDS011;59391;52.504;13.438;2023-02-18T03:30:51;11.23;;;2.60;;
71562;SDS011;59391;52.504;13.438;2023-02-18T03:33:26;8.32;;;2.90;;
71562;SDS011;59391;52.504;13.438;2023-02-18T03:35:57;12.77;;;3.23;;
71562;SDS011;59391;52.504;13.438;2023-02-18T03:38:41;12.13;;;3.25;;
71562;SDS011;59391;52.504;13.438;2023-02-18T03:41:33;9.93;;;3.03;;
71562;SDS011;59391;52.504;13.438;2023-02-18T03:44:01;11.13;;;3.40;;
71562;SDS011;59391;52.504;13.438;2023-02-18T03:46:34;7.95;;;2.90;;
71562;SDS011;59391;52.504;13.438;2023-02-18T03:49:04;8.40;;;2.63;;
71562;SDS011;59391;52.504;13.438;2023-02-18T03:51:30;10.45;;;2.75;;
71562;SDS011;59391;52.504;13.438;2023-02-18T03:53:56;8.25;;;2.40;;
71562;SDS011;59391;52.504;13.438;2023-02-18T03:56:22;6.80;;;2.70;;
71562;SDS011;59391;52.504;13.438;2023-02-18T03:58:49;8.43;;;2.67;;
71562;SDS011;59391;52.504;13.438;2023-02-18T04:01:15;11.18;;;2.60;;
71562;SDS011;59391;52.504;13.438;2023-02-18T04:03:40;6.18;;;2.50;;
71562;SDS011;59391;52.504;13.438;2023-02-18T04:06:06;7.50;;;2.70;;
71562;SDS011;59391;52.504;13.438;2023-02-18T04:08:32;11.43;;;2.92;;
71562;SDS011;59391;52.504;13.438;2023-02-18T04:10:58;11.43;;;2.20;;
71562;SDS011;59391;52.504;13.438;2023-02-18T04:13:24;12.63;;;2.90;;
71562;SDS011;59391;52.504;13.438;2023-02-18T04:15:49;7.63;;;2.70;;
71562;SDS011;59391;52.504;13.438;2023-02-18T04:18:16;13.25;;;2.65;;
71562;SDS011;59391;52.504;13.438;2023-02-18T04:20:42;10.77;;;2.70;;
71562;SDS011;59391;52.504;13.438;2023-02-18T04:23:10;7.00;;;2.65;;
71562;SDS011;59391;52.504;13.438;2023-02-18T04:25:36;9.23;;;2.60;;
71562;SDS011;59391;52.504;13.438;2023-02-18T04:28:02;11.15;;;2.90;;
71562;SDS011;59391;52.504;13.438;2023-02-18T04:30:29;10.45;;;3.00;;
71562;SDS011;59391;52.504;13.438;2023-02-18T04:32:54;7.15;;;2.15;;
71562;SDS011;59391;52.504;13.438;2023-02-18T04:35:20;9.73;;;3.05;;
71562;SDS011;59391;52.504;13.438;2023-02-18T04:37:46;10.97;;;3.27;;
71562;SDS011;59391;52.504;13.438;2023-02-18T04:40:11;10.82;;;2.75;;
71562;SDS011;59391;52.504;13.438;2023-02-18T04:42:37;10.17;;;2.70;;
71562;SDS011;59391;52.504;13.438;2023-02-18T04:45:03;12.55;;;2.75;;
71562;SDS011;59391;52.504;13.438;2023-02-18T04:47:29;6.93;;;2.95;;
71562;SDS011;59391;52.504;13.438;2023-02-18T04:49:55;12.70;;;2.10;;
71562;SDS011;59391;52.504;13.438;2023-02-18T04:52:21;7.10;;;2.88;;
71562;SDS011;59391;52.504;13.438;2023-02-18T04:54:46;6.33;;;2.30;;
71562;SDS011;59391;52.504;13.438;2023-02-18T04:57:12;10.07;;;2.88;;
71562;SDS011;59391;52.504;13.438;2023-02-18T04:59:38;6.53;;;2.67;;
71562;SDS011;59391;52.504;13.438;2023-02-18T05:02:03;9.95;;;2.70;;
71562;SDS011;59391;52.504;13.438;2023-02-18T05:04:29;8.10;;;2.70;;
71562;SDS011;59391;52.504;13.438;2023-02-18T05:06:55;9.68;;;2.67;;
71562;SDS011;59391;52.504;13.438;2023-02-18T05:09:21;10.30;;;2.75;;
71562;SDS011;59391;52.504;13.438;2023-02-18T05:11:47;10.52;;;2.88;;
71562;SDS011;59391;52.504;13.438;2023-02-18T05:14:13;11.88;;;2.53;;
71562;SDS011;59391;52.504;13.438;2023-02-18T05:16:39;9.33;;;2.70;;
71562;SDS011;59391;52.504;13.438;2023-02-18T05:19:05;9.73;;;2.38;;
71562;SDS011;59391;52.504;13.438;2023-02-18T05:21:30;10.38;;;2.55;;
71562;SDS011;59391;52.504;13.438;2023-02-18T05:23:57;12.02;;;2.55;;
71562;SDS011;59391;52.504;13.438;2023-02-18T05:26:22;11.45;;;2.50;;
71562;SDS011;59391;52.504;13.438;2023-02-18T05:28:48;5.93;;;2.50;;
71562;SDS011;59391;52.504;13.438;2023-02-18T05:31:14;8.52;;;2.60;;
71562;SDS011;59391;52.504;13.438;2023-02-18T05:33:40;7.93;;;2.67;;
71562;SDS011;59391;52.504;13.438;2023-02-18T05:36:06;9.93;;;1.90;;
71562;SDS011;59391;52.504;13.438;2023-02-18T05:38:32;7.43;;;2.58;;
71562;SDS011;59391;52.504;13.438;2023-02-18T05:40:58;6.70;;;2.27;;
71562;SDS011;59391;52.504;13.438;2023-02-18T05:43:23;12.68;;;4.30;;
71562;SDS011;59391;52.504;13.438;2023-02-18T05:45:49;7.13;;;2.60;;
71562;SDS011;59391;52.504;13.438;2023-02-18T05:48:15;10.05;;;2.45;;
71562;SDS011;59391;52.504;13.438;2023-02-18T05:50:40;9.70;;;2.70;;
71562;SDS011;59391;52.504;13.438;2023-02-18T05:53:06;6.40;;;2.17;;
71562;SDS011;59391;52.504;13.438;2023-02-18T05:55:32;6.93;;;2.63;;
71562;SDS011;59391;52.504;13.438;2023-02-18T05:58:02;10.30;;;2.70;;
71562;SDS011;59391;52.504;13.438;2023-02-18T06:00:29;9.70;;;2.75;;
71562;SDS011;59391;52.504;13.438;2023-02-18T06:02:56;8.45;;;3.00;;
71562;SDS011;59391;52.504;13.438;2023-02-18T06:05:23;8.75;;;3.13;;
71562;SDS011;59391;52.504;13.438;2023-02-18T06:07:49;6.80;;;2.43;;
71562;SDS011;59391;52.504;13.438;2023-02-18T06:10:15;10.90;;;2.55;;
71562;SDS011;59391;52.504;13.438;2023-02-18T06:12:42;10.23;;;3.05;;
71562;SDS011;59391;52.504;13.438;2023-02-18T06:15:08;5.93;;;2.60;;
71562;SDS011;59391;52.504;13.438;2023-02-18T06:17:34;9.93;;;2.17;;
71562;SDS011;59391;52.504;13.438;2023-02-18T06:20:00;7.68;;;2.38;;
71562;SDS011;59391;52.504;13.438;2023-02-18T06:22:25;5.40;;;2.40;;
71562;SDS011;59391;52.504;13.438;2023-02-18T06:24:51;5.07;;;2.27;;
71562;SDS011;59391;52.504;13.438;2023-02-18T06:27:16;8.68;;;2.13;;
71562;SDS011;59391;52.504;13.438;2023-02-18T06:29:43;5.80;;;2.60;;
71562;SDS011;59391;52.504;13.438;2023-02-18T06:32:08;8.10;;;2.63;;
71562;SDS011;59391;52.504;13.438;2023-02-18T06:34:34;10.27;;;2.67;;
71562;SDS011;59391;52.504;13.438;2023-02-18T06:36:59;5.95;;;2.30;;
71562;SDS011;59391;52.504;13.438;2023-02-18T06:39:25;8.07;;;2.70;;
71562;SDS011;59391;52.504;13.438;2023-02-18T06:41:51;10.50;;;3.10;;
71562;SDS011;59391;52.504;13.438;2023-02-18T06:44:16;9.53;;;2.50;;
71562;SDS011;59391;52.504;13.438;2023-02-18T06:46:42;7.47;;;2.00;;
71562;SDS011;59391;52.504;13.438;2023-02-18T06:49:09;8.95;;;2.30;;
71562;SDS011;59391;52.504;13.438;2023-02-18T06:51:34;8.25;;;2.67;;
71562;SDS011;59391;52.504;13.438;2023-02-18T06:54:00;8.93;;;2.95;;
71562;SDS011;59391;52.504;13.438;2023-02-18T06:56:25;8.10;;;2.80;;
71562;SDS011;59391;52.504;13.438;2023-02-18T06:58:51;8.57;;;3.25;;
71562;SDS011;59391;52.504;13.438;2023-02-18T07:01:17;10.17;;;3.27;;
71562;SDS011;59391;52.504;13.438;2023-02-18T07:03:42;10.10;;;3.30;;
71562;SDS011;59391;52.504;13.438;2023-02-18T07:06:08;7.45;;;2.80;;
71562;SDS011;59391;52.504;13.438;2023-02-18T07:08:34;4.93;;;2.40;;
71562;SDS011;59391;52.504;13.438;2023-02-18T07:11:01;8.75;;;2.83;;
71562;SDS011;59391;52.504;13.438;2023-02-18T07:13:27;7.93;;;2.60;;
71562;SDS011;59391;52.504;13.438;2023-02-18T07:15:53;6.57;;;2.70;;
71562;SDS011;59391;52.504;13.438;2023-02-18T07:18:19;6.63;;;2.55;;
71562;SDS011;59391;52.504;13.438;2023-02-18T07:20:45;5.50;;;2.33;;
71562;SDS011;59391;52.504;13.438;2023-02-18T07:23:11;7.05;;;2.85;;
71562;SDS011;59391;52.504;13.438;2023-02-18T07:25:36;7.78;;;2.75;;
71562;SDS011;59391;52.504;13.438;2023-02-18T07:28:02;11.17;;;2.63;;
71562;SDS011;59391;52.504;13.438;2023-02-18T07:30:28;8.00;;;2.20;;
71562;SDS011;59391;52.504;13.438;2023-02-18T07:32:53;6.83;;;2.40;;
71562;SDS011;59391;52.504;13.438;2023-02-18T07:35:19;9.13;;;2.47;;
71562;SDS011;59391;52.504;13.438;2023-02-18T07:37:45;6.60;;;2.40;;
71562;SDS011;59391;52.504;13.438;2023-02-18T07:40:13;6.68;;;2.53;;
71562;SDS011;59391;52.504;13.438;2023-02-18T07:42:43;6.45;;;2.55;;
71562;SDS011;59391;52.504;13.438;2023-02-18T07:45:09;6.40;;;3.00;;
71562;SDS011;59391;52.504;13.438;2023-02-18T07:47:36;6.47;;;2.67;;
71562;SDS011;59391;52.504;13.438;2023-02-18T07:50:02;8.02;;;2.30;;
71562;SDS011;59391;52.504;13.438;2023-02-18T07:52:30;7.07;;;2.75;;
71562;SDS011;59391;52.504;13.438;2023-02-18T07:54:56;7.90;;;2.30;;
71562;SDS011;59391;52.504;13.438;2023-02-18T07:57:21;8.25;;;2.40;;
71562;SDS011;59391;52.504;13.438;2023-02-18T07:59:47;8.43;;;2.90;;
71562;SDS011;59391;52.504;13.438;2023-02-18T08:02:17;6.38;;;2.63;;
71562;SDS011;59391;52.504;13.438;2023-02-18T08:04:46;8.48;;;2.53;;
71562;SDS011;59391;52.504;13.438;2023-02-18T08:07:13;5.72;;;2.50;;
71562;SDS011;59391;52.504;13.438;2023-02-18T08:09:41;6.30;;;2.28;;
71562;SDS011;59391;52.504;13.438;2023-02-18T08:12:07;7.30;;;2.75;;
71562;SDS011;59391;52.504;13.438;2023-02-18T08:14:33;6.67;;;2.50;;
71562;SDS011;59391;52.504;13.438;2023-02-18T08:16:59;7.50;;;2.47;;
71562;SDS011;59391;52.504;13.438;2023-02-18T08:19:25;5.13;;;2.50;;
71562;SDS011;59391;52.504;13.438;2023-02-18T08:21:51;6.18;;;2.53;;
71562;SDS011;59391;52.504;13.438;2023-02-18T08:24:16;6.25;;;2.17;;
71562;SDS011;59391;52.504;13.438;2023-02-18T08:26:42;6.88;;;3.10;;
71562;SDS011;59391;52.504;13.438;2023-02-18T08:29:08;9.90;;;3.08;;
71562;SDS011;59391;52.504;13.438;2023-02-18T08:31:34;8.83;;;2.93;;
71562;SDS011;59391;52.504;13.438;2023-02-18T08:34:00;7.57;;;2.95;;
71562;SDS011;59391;52.504;13.438;2023-02-18T08:36:27;8.52;;;2.83;;
71562;SDS011;59391;52.504;13.438;2023-02-18T08:38:54;9.00;;;2.67;;
71562;SDS011;59391;52.504;13.438;2023-02-18T08:41:21;8.48;;;3.00;;
71562;SDS011;59391;52.504;13.438;2023-02-18T08:43:47;7.00;;;3.08;;
71562;SDS011;59391;52.504;13.438;2023-02-18T08:46:13;4.63;;;2.57;;
71562;SDS011;59391;52.504;13.438;2023-02-18T08:48:39;6.78;;;2.58;;
71562;SDS011;59391;52.504;13.438;2023-02-18T08:51:15;6.90;;;2.47;;
71562;SDS011;59391;52.504;13.438;2023-02-18T08:53:43;7.53;;;2.73;;
71562;SDS011;59391;52.504;13.438;2023-02-18T08:56:11;7.63;;;2.53;;
71562;SDS011;59391;52.504;13.438;2023-02-18T08:58:39;7.65;;;2.28;;
71562;SDS011;59391;52.504;13.438;2023-02-18T09:01:07;8.02;;;2.72;;
71562;SDS011;59391;52.504;13.438;2023-02-18T09:03:35;6.68;;;3.22;;
71562;SDS011;59391;52.504;13.438;2023-02-18T09:06:02;8.33;;;3.40;;
71562;SDS011;59391;52.504;13.438;2023-02-18T09:08:28;6.85;;;3.72;;
71562;SDS011;59391;52.504;13.438;2023-02-18T09:10:54;6.60;;;2.47;;
71562;SDS011;59391;52.504;13.438;2023-02-18T09:13:25;8.50;;;2.80;;
71562;SDS011;59391;52.504;13.438;2023-02-18T09:15:55;10.00;;;2.83;;
71562;SDS011;59391;52.504;13.438;2023-02-18T09:18:27;8.52;;;2.60;;
71562;SDS011;59391;52.504;13.438;2023-02-18T09:20:57;11.55;;;3.40;;
71562;SDS011;59391;52.504;13.438;2023-02-18T09:23:25;10.88;;;3.35;;
71562;SDS011;59391;52.504;13.438;2023-02-18T09:25:53;11.67;;;3.97;;
71562;SDS011;59391;52.504;13.438;2023-02-18T09:28:19;14.75;;;7.13;;
71562;SDS011;59391;52.504;13.438;2023-02-18T09:30:46;14.82;;;5.10;;
71562;SDS011;59391;52.504;13.438;2023-02-18T09:33:12;10.15;;;3.22;;
71562;SDS011;59391;52.504;13.438;2023-02-18T09:35:38;9.63;;;3.50;;
71562;SDS011;59391;52.504;13.438;2023-02-18T09:38:10;10.20;;;3.97;;
71562;SDS011;59391;52.504;13.438;2023-02-18T09:40:41;10.88;;;4.10;;
71562;SDS011;59391;52.504;13.438;2023-02-18T09:43:17;10.40;;;4.00;;
71562;SDS011;59391;52.504;13.438;2023-02-18T09:46:00;13.73;;;7.40;;
71562;SDS011;59391;52.504;13.438;2023-02-18T09:48:30;18.38;;;9.02;;
71562;SDS011;59391;52.504;13.438;2023-02-18T09:50:59;10.27;;;4.00;;
71562;SDS011;59391;52.504;13.438;2023-02-18T09:53:25;12.35;;;4.88;;
71562;SDS011;59391;52.504;13.438;2023-02-18T09:55:52;12.47;;;4.63;;
71562;SDS011;59391;52.504;13.438;2023-02-18T09:58:22;10.85;;;3.22;;
71562;SDS011;59391;52.504;13.438;2023-02-18T10:00:56;15.02;;;5.80;;
71562;SDS011;59391;52.504;13.438;2023-02-18T10:03:40;8.60;;;3.90;;
71562;SDS011;59391;52.504;13.438;2023-02-18T10:06:11;13.88;;;4.65;;
71562;SDS011;59391;52.504;13.438;2023-02-18T10:08:49;10.93;;;4.40;;
71562;SDS011;59391;52.504;13.438;2023-02-18T10:11:29;14.80;;;5.07;;
71562;SDS011;59391;52.504;13.438;2023-02-18T10:13:59;14.60;;;4.82;;
71562;SDS011;59391;52.504;13.438;2023-02-18T10:16:26;15.90;;;6.18;;
71562;SDS011;59391;52.504;13.438;2023-02-18T10:18:54;16.17;;;5.40;;
71562;SDS011;59391;52.504;13.438;2023-02-18T10:21:27;19.53;;;8.10;;
71562;SDS011;59391;52.504;13.438;2023-02-18T10:24:01;12.15;;;4.50;;
71562;SDS011;59391;52.504;13.438;2023-02-18T10:26:36;20.10;;;10.32;;
71562;SDS011;59391;52.504;13.438;2023-02-18T10:29:03;24.85;;;13.93;;
71562;SDS011;59391;52.504;13.438;2023-02-18T10:31:39;16.90;;;8.02;;
71562;SDS011;59391;52.504;13.438;2023-02-18T10:34:37;15.63;;;5.30;;
71562;SDS011;59391;52.504;13.438;2023-02-18T10:40:40;14.10;;;6.25;;
71562;SDS011;59391;52.504;13.438;2023-02-18T10:49:39;15.03;;;5.20;;
71562;SDS011;59391;52.504;13.438;2023-02-18T10:52:26;17.63;;;6.03;;
71562;SDS011;59391;52.504;13.438;2023-02-18T10:55:00;29.65;;;9.38;;
71562;SDS011;59391;52.504;13.438;2023-02-18T10:57:31;14.23;;;5.18;;
71562;SDS011;59391;52.504;13.438;2023-02-18T10:59:58;21.20;;;7.10;;
71562;SDS011;59391;52.504;13.438;2023-02-18T11:02:35;13.67;;;4.50;;
71562;SDS011;59391;52.504;13.438;2023-02-18T11:05:15;19.90;;;7.95;;
71562;SDS011;59391;52.504;13.438;2023-02-18T11:07:50;18.10;;;8.05;;
71562;SDS011;59391;52.504;13.438;2023-02-18T11:10:30;34.33;;;13.07;;
71562;SDS011;59391;52.504;13.438;2023-02-18T11:13:04;11.63;;;5.68;;
71562;SDS011;59391;52.504;13.438;2023-02-18T11:15:32;13.23;;;5.37;;
71562;SDS011;59391;52.504;13.438;2023-02-18T11:20:54;27.77;;;10.70;;
71562;SDS011;59391;52.504;13.438;2023-02-18T11:23:27;11.27;;;4.93;;
71562;SDS011;59391;52.504;13.438;2023-02-18T11:25:54;13.27;;;5.97;;
71562;SDS011;59391;52.504;13.438;2023-02-18T11:28:41;12.95;;;5.78;;
71562;SDS011;59391;52.504;13.438;2023-02-18T11:31:16;11.32;;;5.15;;
71562;SDS011;59391;52.504;13.438;2023-02-18T11:33:57;10.93;;;5.25;;
71562;SDS011;59391;52.504;13.438;2023-02-18T11:36:28;5.83;;;3.93;;
71562;SDS011;59391;52.504;13.438;2023-02-18T11:39:01;8.65;;;4.20;;
71562;SDS011;59391;52.504;13.438;2023-02-18T11:44:33;9.30;;;3.80;;
71562;SDS011;59391;52.504;13.438;2023-02-18T11:47:26;10.57;;;5.10;;
71562;SDS011;59391;52.504;13.438;2023-02-18T11:52:34;12.25;;;6.75;;
71562;SDS011;59391;52.504;13.438;2023-02-18T11:55:07;12.30;;;7.10;;
71562;SDS011;59391;52.504;13.438;2023-02-18T11:57:54;7.93;;;4.82;;
71562;SDS011;59391;52.504;13.438;2023-02-18T12:00:39;15.32;;;8.68;;
71562;SDS011;59391;52.504;13.438;2023-02-18T12:03:29;11.13;;;7.50;;
71562;SDS011;59391;52.504;13.438;2023-02-18T12:11:57;14.65;;;7.05;;
71562;SDS011;59391;52.504;13.438;2023-02-18T12:14:30;8.30;;;5.03;;
71562;SDS011;59391;52.504;13.438;2023-02-18T12:20:06;18.63;;;8.18;;
71562;SDS011;59391;52.504;13.438;2023-02-18T12:25:59;8.18;;;4.80;;
71562;SDS011;59391;52.504;13.438;2023-02-18T12:29:02;8.32;;;5.20;;
71562;SDS011;59391;52.504;13.438;2023-02-18T12:35:06;11.02;;;5.40;;
71562;SDS011;59391;52.504;13.438;2023-02-18T12:38:05;9.73;;;5.53;;
71562;SDS011;59391;52.504;13.438;2023-02-18T12:41:15;11.02;;;5.40;;
71562;SDS011;59391;52.504;13.438;2023-02-18T12:44:11;8.88;;;5.18;;
71562;SDS011;59391;52.504;13.438;2023-02-18T12:49:56;10.43;;;5.50;;
71562;SDS011;59391;52.504;13.438;2023-02-18T12:53:35;10.63;;;6.28;;
71562;SDS011;59391;52.504;13.438;2023-02-18T12:59:01;9.95;;;5.05;;
71562;SDS011;59391;52.504;13.438;2023-02-18T13:01:56;8.23;;;5.27;;
71562;SDS011;59391;52.504;13.438;2023-02-18T13:05:06;10.25;;;6.10;;
71562;SDS011;59391;52.504;13.438;2023-02-18T13:08:05;10.35;;;5.45;;
71562;SDS011;59391;52.504;13.438;2023-02-18T13:13:55;8.70;;;5.65;;
71562;SDS011;59391;52.504;13.438;2023-02-18T13:16:30;7.97;;;5.23;;
71562;SDS011;59391;52.504;13.438;2023-02-18T13:21:59;9.02;;;5.50;;
71562;SDS011;59391;52.504;13.438;2023-02-18T13:24:36;8.77;;;5.78;;
71562;SDS011;59391;52.504;13.438;2023-02-18T13:27:13;8.13;;;5.20;;
71562;SDS011;59391;52.504;13.438;2023-02-18T13:35:59;6.70;;;4.03;;
71562;SDS011;59391;52.504;13.438;2023-02-18T13:41:44;7.55;;;3.85;;
71562;SDS011;59391;52.504;13.438;2023-02-18T13:46:46;6.57;;;3.67;;
71562;SDS011;59391;52.504;13.438;2023-02-18T13:49:20;5.43;;;3.35;;
71562;SDS011;59391;52.504;13.438;2023-02-18T13:51:56;6.07;;;3.33;;
71562;SDS011;59391;52.504;13.438;2023-02-18T13:54:29;4.60;;;3.10;;
71562;SDS011;59391;52.504;13.438;2023-02-18T13:57:04;6.27;;;3.57;;
71562;SDS011;59391;52.504;13.438;2023-02-18T13:59:42;5.32;;;3.20;;
71562;SDS011;59391;52.504;13.438;2023-02-18T14:07:31;5.63;;;3.60;;
71562;SDS011;59391;52.504;13.438;2023-02-18T14:15:53;6.50;;;3.55;;
71562;SDS011;59391;52.504;13.438;2023-02-18T14:18:33;7.00;;;3.75;;
71562;SDS011;59391;52.504;13.438;2023-02-18T14:21:37;5.05;;;3.13;;
71562;SDS011;59391;52.504;13.438;2023-02-18T14:24:08;5.30;;;2.92;;
71562;SDS011;59391;52.504;13.438;2023-02-18T14:26:42;4.45;;;3.00;;
71562;SDS011;59391;52.504;13.438;2023-02-18T14:29:16;5.07;;;3.25;;
71562;SDS011;59391;52.504;13.438;2023-02-18T14:31:53;4.35;;;2.63;;
71562;SDS011;59391;52.504;13.438;2023-02-18T14:34:31;5.47;;;3.28;;
71562;SDS011;59391;52.504;13.438;2023-02-18T14:37:10;6.72;;;3.03;;
71562;SDS011;59391;52.504;13.438;2023-02-18T14:40:21;5.18;;;2.80;;
71562;SDS011;59391;52.504;13.438;2023-02-18T14:43:09;4.70;;;2.80;;
71562;SDS011;59391;52.504;13.438;2023-02-18T14:49:25;4.78;;;2.88;;
71562;SDS011;59391;52.504;13.438;2023-02-18T14:52:18;4.60;;;2.60;;
71562;SDS011;59391;52.504;13.438;2023-02-18T14:54:52;4.40;;;2.80;;
71562;SDS011;59391;52.504;13.438;2023-02-18T14:57:20;5.35;;;2.95;;
71562;SDS011;59391;52.504;13.438;2023-02-18T15:00:14;4.32;;;2.60;;
71562;SDS011;59391;52.504;13.438;2023-02-18T15:02:50;4.60;;;2.78;;
71562;SDS011;59391;52.504;13.438;2023-02-18T15:07:58;5.22;;;2.60;;
71562;SDS011;59391;52.504;13.438;2023-02-18T15:10:42;4.40;;;2.40;;
71562;SDS011;59391;52.504;13.438;2023-02-18T15:13:26;4.13;;;2.55;;
71562;SDS011;59391;52.504;13.438;2023-02-18T15:16:00;4.65;;;2.90;;
71562;SDS011;59391;52.504;13.438;2023-02-18T15:18:37;5.55;;;3.08;;
71562;SDS011;59391;52.504;13.438;2023-02-18T15:21:29;4.35;;;2.70;;
71562;SDS011;59391;52.504;13.438;2023-02-18T15:24:05;4.22;;;2.75;;
71562;SDS011;59391;52.504;13.438;2023-02-18T15:26:41;5.00;;;2.67;;
71562;SDS011;59391;52.504;13.438;2023-02-18T15:29:14;5.07;;;2.95;;
71562;SDS011;59391;52.504;13.438;2023-02-18T15:31:46;4.00;;;2.50;;
71562;SDS011;59391;52.504;13.438;2023-02-18T15:36:59;3.80;;;2.40;;
71562;SDS011;59391;52.504;13.438;2023-02-18T15:39:27;4.05;;;2.28;;
71562;SDS011;59391;52.504;13.438;2023-02-18T15:41:54;4.13;;;2.17;;
71562;SDS011;59391;52.504;13.438;2023-02-18T15:44:51;3.90;;;2.28;;
71562;SDS011;59391;52.504;13.438;2023-02-18T15:47:29;3.95;;;2.40;;
71562;SDS011;59391;52.504;13.438;2023-02-18T15:49:57;4.00;;;2.13;;
71562;SDS011;59391;52.504;13.438;2023-02-18T15:52:30;4.00;;;2.65;;
71562;SDS011;59391;52.504;13.438;2023-02-18T15:55:03;3.30;;;2.00;;
71562;SDS011;59391;52.504;13.438;2023-02-18T15:57:38;3.60;;;2.15;;
71562;SDS011;59391;52.504;13.438;2023-02-18T16:00:13;3.70;;;2.15;;
71562;SDS011;59391;52.504;13.438;2023-02-18T16:03:23;3.80;;;2.30;;
71562;SDS011;59391;52.504;13.438;2023-02-18T16:05:49;3.78;;;2.30;;
71562;SDS011;59391;52.504;13.438;2023-02-18T16:08:21;3.40;;;2.00;;
71562;SDS011;59391;52.504;13.438;2023-02-18T16:10:55;3.83;;;2.05;;
71562;SDS011;59391;52.504;13.438;2023-02-18T16:13:31;3.50;;;1.83;;
71562;SDS011;59391;52.504;13.438;2023-02-18T16:15:59;3.10;;;1.90;;
71562;SDS011;59391;52.504;13.438;2023-02-18T16:18:38;4.10;;;2.28;;
71562;SDS011;59391;52.504;13.438;2023-02-18T16:21:21;3.63;;;2.30;;
71562;SDS011;59391;52.504;13.438;2023-02-18T16:23:55;5.60;;;2.20;;
71562;SDS011;59391;52.504;13.438;2023-02-18T16:26:28;3.30;;;1.77;;
71562;SDS011;59391;52.504;13.438;2023-02-18T16:29:00;3.30;;;1.80;;
71562;SDS011;59391;52.504;13.438;2023-02-18T16:31:36;3.20;;;1.73;;
71562;SDS011;59391;52.504;13.438;2023-02-18T16:34:02;3.40;;;1.95;;
71562;SDS011;59391;52.504;13.438;2023-02-18T16:36:28;4.33;;;2.13;;
71562;SDS011;59391;52.504;13.438;2023-02-18T16:38:54;4.00;;;1.70;;
71562;SDS011;59391;52.504;13.438;2023-02-18T16:41:19;3.83;;;2.30;;